createdAt,value
2019-05-18T00:00:16.226Z,14.48
2019-05-18T00:01:16.134Z,14.44
2019-05-18T00:02:16.026Z,14.45
2019-05-18T00:03:15.944Z,14.44
2019-05-18T00:04:15.825Z,14.48
2019-05-18T00:05:15.725Z,14.36
2019-05-18T00:06:15.624Z,14.37
2019-05-18T00:07:15.526Z,14.43
2019-05-18T00:08:15.422Z,14.50
2019-05-18T00:09:15.323Z,14.50
2019-05-18T00:10:15.223Z,14.48
2019-05-18T00:11:15.127Z,14.51
2019-05-18T00:12:15.048Z,14.35
2019-05-18T00:13:14.979Z,14.35
2019-05-18T00:14:14.821Z,14.30
2019-05-18T00:15:14.734Z,14.33
2019-05-18T00:16:14.618Z,14.29
2019-05-18T00:17:24.858Z,14.36
2019-05-18T00:18:14.419Z,14.29
2019-05-18T00:19:14.317Z,14.32
2019-05-18T00:20:14.217Z,14.29
2019-05-18T00:21:14.124Z,14.32
2019-05-18T00:22:14.014Z,14.17
2019-05-18T00:23:13.911Z,14.25
2019-05-18T00:24:13.813Z,14.25
2019-05-18T00:25:13.712Z,14.15
2019-05-18T00:26:13.613Z,14.15
2019-05-18T00:27:13.516Z,14.23
2019-05-18T00:28:13.409Z,14.12
2019-05-18T00:29:13.310Z,14.22
2019-05-18T00:30:13.212Z,14.12
2019-05-18T00:31:13.109Z,14.07
2019-05-18T00:32:13.021Z,14.11
2019-05-18T00:33:12.957Z,14.11
2019-05-18T00:34:12.805Z,14.10
2019-05-18T00:35:12.706Z,14.04
2019-05-18T00:36:12.604Z,13.99
2019-05-18T00:37:12.502Z,14.00
2019-05-18T00:38:12.414Z,13.99
2019-05-18T00:39:12.302Z,13.99
2019-05-18T00:40:12.199Z,13.95
2019-05-18T00:41:12.100Z,13.96
2019-05-18T00:42:12.004Z,13.92
2019-05-18T00:43:11.903Z,13.99
2019-05-18T00:44:11.806Z,13.87
2019-05-18T00:45:11.697Z,13.86
2019-05-18T00:46:11.596Z,13.87
2019-05-18T00:47:11.495Z,13.85
2019-05-18T00:48:11.391Z,13.85
2019-05-18T00:49:11.292Z,13.83
2019-05-18T00:50:11.190Z,13.74
2019-05-18T00:51:11.090Z,13.72
2019-05-18T00:52:11.010Z,13.68
2019-05-18T00:53:10.927Z,13.72
2019-05-18T00:54:10.809Z,13.70
2019-05-18T00:55:10.688Z,13.78
2019-05-18T00:56:10.587Z,13.71
2019-05-18T00:57:10.483Z,13.71
2019-05-18T00:58:10.385Z,13.75
2019-05-18T00:59:15.679Z,13.67
2019-05-18T01:00:10.181Z,13.67
2019-05-18T01:01:10.081Z,13.68
2019-05-18T01:02:09.984Z,13.62
2019-05-18T01:03:09.881Z,13.60
2019-05-18T01:04:09.778Z,13.53
2019-05-18T01:05:09.675Z,13.53
2019-05-18T01:06:09.581Z,13.60
2019-05-18T01:07:09.474Z,13.53
2019-05-18T01:08:09.372Z,13.47
2019-05-18T01:09:09.272Z,13.54
2019-05-18T01:10:09.172Z,13.44
2019-05-18T01:11:09.069Z,13.44
2019-05-18T01:12:08.968Z,13.44
2019-05-18T01:13:08.912Z,13.42
2019-05-18T01:14:08.765Z,13.41
2019-05-18T01:15:08.667Z,13.52
2019-05-18T01:16:08.564Z,13.47
2019-05-18T01:17:08.462Z,13.44
2019-05-18T01:18:08.361Z,13.44
2019-05-18T01:19:08.260Z,13.44
2019-05-18T01:20:08.162Z,13.39
2019-05-18T01:21:08.059Z,13.38
2019-05-18T01:22:07.963Z,13.39
2019-05-18T01:23:07.878Z,13.38
2019-05-18T01:24:07.753Z,13.37
2019-05-18T01:25:07.656Z,13.28
2019-05-18T01:26:07.555Z,13.28
2019-05-18T01:27:07.450Z,13.25
2019-05-18T01:28:07.354Z,13.23
2019-05-18T01:29:07.251Z,13.30
2019-05-18T01:30:07.149Z,13.15
2019-05-18T01:31:07.047Z,13.18
2019-05-18T01:32:06.943Z,13.22
2019-05-18T01:33:06.877Z,13.23
2019-05-18T01:34:06.742Z,13.20
2019-05-18T01:35:06.642Z,13.11
2019-05-18T01:36:06.541Z,13.16
2019-05-18T01:37:06.443Z,13.13
2019-05-18T01:38:06.338Z,13.09
2019-05-18T01:39:06.237Z,13.00
2019-05-18T01:40:06.135Z,13.05
2019-05-18T01:41:06.039Z,13.03
2019-05-18T01:42:05.981Z,12.98
2019-05-18T01:43:05.830Z,13.01
2019-05-18T01:44:05.731Z,13.00
2019-05-18T01:45:16.200Z,13.00
2019-05-18T01:46:05.528Z,13.00
2019-05-18T01:47:05.429Z,12.95
2019-05-18T01:48:13.480Z,12.97
2019-05-18T01:49:05.224Z,12.94
2019-05-18T01:50:05.123Z,12.97
2019-05-18T01:51:05.022Z,12.95
2019-05-18T01:52:04.938Z,12.97
2019-05-18T01:53:04.861Z,12.98
2019-05-18T01:54:04.726Z,12.93
2019-05-18T01:55:04.615Z,12.93
2019-05-18T01:56:04.513Z,12.90
2019-05-18T01:57:04.420Z,12.90
2019-05-18T01:58:04.312Z,12.82
2019-05-18T01:59:04.209Z,12.94
2019-05-18T02:00:04.216Z,12.85
2019-05-18T02:01:04.008Z,12.79
2019-05-18T02:02:03.903Z,12.79
2019-05-18T02:03:03.840Z,12.75
2019-05-18T02:04:03.715Z,12.79
2019-05-18T02:05:03.600Z,12.79
2019-05-18T02:06:03.498Z,12.78
2019-05-18T02:07:03.435Z,12.76
2019-05-18T02:08:03.295Z,12.78
2019-05-18T02:09:03.193Z,12.76
2019-05-18T02:10:03.096Z,12.76
2019-05-18T02:11:02.996Z,12.68
2019-05-18T02:12:02.895Z,12.76
2019-05-18T02:13:02.950Z,12.67
2019-05-18T02:14:02.691Z,12.75
2019-05-18T02:15:02.583Z,12.76
2019-05-18T02:16:02.483Z,12.73
2019-05-18T02:17:02.385Z,12.65
2019-05-18T02:18:02.280Z,12.60
2019-05-18T02:19:02.178Z,12.62
2019-05-18T02:20:02.077Z,12.62
2019-05-18T02:21:01.988Z,12.57
2019-05-18T02:22:01.875Z,12.60
2019-05-18T02:23:01.770Z,12.61
2019-05-18T02:24:01.680Z,12.60
2019-05-18T02:25:01.569Z,12.61
2019-05-18T02:26:01.466Z,12.62
2019-05-18T02:27:01.394Z,12.61
2019-05-18T02:28:01.276Z,12.61
2019-05-18T02:29:01.160Z,12.64
2019-05-18T02:30:01.070Z,12.46
2019-05-18T02:31:00.961Z,12.42
2019-05-18T02:32:00.895Z,12.58
2019-05-18T02:33:00.806Z,12.60
2019-05-18T02:34:00.653Z,12.49
2019-05-18T02:35:00.551Z,12.47
2019-05-18T02:36:00.447Z,12.49
2019-05-18T02:37:00.351Z,12.49
2019-05-18T02:38:00.248Z,12.54
2019-05-18T02:39:00.162Z,12.53
2019-05-18T02:40:00.042Z,12.46
2019-05-18T02:40:59.941Z,12.40
2019-05-18T02:41:59.842Z,12.43
2019-05-18T02:42:59.739Z,12.46
2019-05-18T02:43:59.649Z,12.35
2019-05-18T02:44:59.534Z,12.37
2019-05-18T02:45:59.432Z,12.36
2019-05-18T02:46:59.332Z,12.42
2019-05-18T02:47:59.241Z,12.46
2019-05-18T02:48:59.128Z,12.43
2019-05-18T02:49:59.028Z,12.43
2019-05-18T02:50:58.926Z,12.43
2019-05-18T02:51:58.854Z,12.46
2019-05-18T02:52:58.791Z,12.36
2019-05-18T02:53:58.623Z,12.31
2019-05-18T02:54:58.520Z,12.28
2019-05-18T02:55:58.415Z,12.31
2019-05-18T02:56:58.317Z,12.35
2019-05-18T02:57:58.211Z,12.37
2019-05-18T02:58:58.113Z,12.28
2019-05-18T02:59:58.009Z,12.32
2019-05-18T03:00:57.907Z,12.29
2019-05-18T03:01:57.806Z,12.31
2019-05-18T03:02:57.704Z,12.35
2019-05-18T03:03:57.608Z,12.31
2019-05-18T03:04:57.500Z,12.42
2019-05-18T03:05:57.399Z,12.32
2019-05-18T03:06:57.297Z,12.28
2019-05-18T03:07:57.198Z,12.39
2019-05-18T03:08:57.094Z,12.32
2019-05-18T03:09:56.992Z,12.29
2019-05-18T03:10:56.886Z,12.31
2019-05-18T03:11:56.825Z,12.29
2019-05-18T03:12:56.714Z,12.31
2019-05-18T03:13:56.585Z,12.32
2019-05-18T03:14:56.481Z,12.29
2019-05-18T03:15:56.376Z,12.28
2019-05-18T03:16:56.276Z,12.27
2019-05-18T03:17:56.178Z,12.31
2019-05-18T03:19:07.766Z,12.29
2019-05-18T03:19:55.972Z,12.32
2019-05-18T03:20:55.870Z,12.32
2019-05-18T03:21:55.770Z,12.29
2019-05-18T03:22:55.751Z,12.24
2019-05-18T03:23:55.564Z,12.36
2019-05-18T03:24:55.464Z,12.24
2019-05-18T03:25:55.372Z,12.32
2019-05-18T03:26:55.258Z,12.29
2019-05-18T03:27:55.156Z,12.32
2019-05-18T03:28:55.056Z,12.28
2019-05-18T03:29:54.952Z,12.32
2019-05-18T03:30:54.965Z,12.37
2019-05-18T03:31:54.821Z,12.35
2019-05-18T03:32:54.735Z,12.42
2019-05-18T03:33:54.546Z,12.36
2019-05-18T03:34:54.443Z,12.42
2019-05-18T03:35:54.353Z,12.29
2019-05-18T03:36:54.239Z,12.42
2019-05-18T03:37:54.135Z,12.42
2019-05-18T03:38:54.038Z,12.39
2019-05-18T03:39:53.932Z,12.36
2019-05-18T03:40:53.836Z,12.37
2019-05-18T03:41:53.734Z,12.40
2019-05-18T03:42:53.628Z,12.37
2019-05-18T03:43:53.526Z,12.40
2019-05-18T03:44:53.424Z,12.42
2019-05-18T03:45:53.321Z,12.42
2019-05-18T03:46:53.220Z,12.53
2019-05-18T03:47:53.117Z,12.54
2019-05-18T03:48:53.020Z,12.50
2019-05-18T03:49:52.915Z,12.46
2019-05-18T03:50:52.813Z,12.46
2019-05-18T03:51:52.755Z,12.60
2019-05-18T03:52:52.612Z,12.61
2019-05-18T03:53:52.507Z,12.65
2019-05-18T03:54:52.404Z,12.75
2019-05-18T03:55:52.302Z,12.73
2019-05-18T03:56:52.202Z,12.76
2019-05-18T03:57:52.102Z,12.93
2019-05-18T03:58:52.000Z,12.95
2019-05-18T03:59:51.898Z,12.97
2019-05-18T04:00:51.797Z,12.90
2019-05-18T04:01:51.698Z,12.86
2019-05-18T04:02:51.614Z,12.79
2019-05-18T04:03:51.492Z,12.80
2019-05-18T04:04:51.391Z,12.82
2019-05-18T04:05:51.292Z,12.87
2019-05-18T04:06:51.213Z,12.91
2019-05-18T04:07:51.084Z,12.90
2019-05-18T04:08:50.983Z,13.01
2019-05-18T04:09:50.884Z,12.98
2019-05-18T04:10:50.783Z,13.08
2019-05-18T04:11:50.756Z,13.03
2019-05-18T04:12:50.576Z,13.08
2019-05-18T04:13:50.474Z,13.09
2019-05-18T04:14:50.373Z,13.16
2019-05-18T04:15:50.291Z,13.20
2019-05-18T04:16:50.180Z,13.18
2019-05-18T04:17:50.073Z,13.23
2019-05-18T04:18:49.970Z,13.18
2019-05-18T04:19:49.870Z,13.23
2019-05-18T04:20:49.768Z,13.22
2019-05-18T04:21:49.664Z,13.22
2019-05-18T04:22:49.565Z,13.35
2019-05-18T04:23:49.466Z,13.28
2019-05-18T04:24:49.363Z,13.37
2019-05-18T04:25:49.262Z,13.41
2019-05-18T04:26:49.160Z,13.53
2019-05-18T04:27:49.059Z,13.62
2019-05-18T04:28:48.958Z,14.04
2019-05-18T04:29:48.855Z,14.25
2019-05-18T04:30:48.754Z,14.30
2019-05-18T04:31:48.723Z,14.50
2019-05-18T04:32:48.552Z,14.77
2019-05-18T04:33:48.452Z,15.06
2019-05-18T04:34:48.359Z,15.27
2019-05-18T04:35:48.254Z,15.28
2019-05-18T04:36:48.153Z,15.40
2019-05-18T04:37:48.050Z,15.39
2019-05-18T04:38:47.951Z,15.43
2019-05-18T04:39:47.850Z,15.59
2019-05-18T04:40:47.751Z,15.83
2019-05-18T04:41:47.655Z,15.83
2019-05-18T04:42:47.553Z,15.80
2019-05-18T04:43:47.452Z,15.98
2019-05-18T04:44:47.352Z,15.97
2019-05-18T04:45:47.255Z,16.24
2019-05-18T04:46:47.154Z,16.39
2019-05-18T04:47:48.706Z,16.68
2019-05-18T04:48:46.954Z,16.66
2019-05-18T04:50:03.928Z,16.54
2019-05-18T04:50:46.758Z,16.64
2019-05-18T04:51:46.719Z,16.86
2019-05-18T04:52:46.653Z,16.68
2019-05-18T04:53:46.462Z,17.05
2019-05-18T04:54:46.366Z,17.20
2019-05-18T04:55:46.264Z,17.30
2019-05-18T04:56:46.167Z,17.45
2019-05-18T04:57:46.066Z,17.72
2019-05-18T04:58:45.973Z,17.82
2019-05-18T04:59:45.881Z,17.82
2019-05-18T05:00:45.774Z,18.01
2019-05-18T05:01:45.684Z,18.07
2019-05-18T05:02:45.578Z,18.00
2019-05-18T05:03:45.484Z,18.15
2019-05-18T05:04:45.385Z,18.13
2019-05-18T05:05:45.290Z,18.04
2019-05-18T05:06:45.191Z,18.01
2019-05-18T05:07:45.092Z,18.35
2019-05-18T05:08:44.997Z,18.13
2019-05-18T05:09:44.900Z,17.94
2019-05-18T05:10:44.809Z,17.89
2019-05-18T05:11:44.719Z,17.85
2019-05-18T05:12:44.677Z,17.85
2019-05-18T05:13:44.511Z,18.00
2019-05-18T05:14:44.416Z,18.29
2019-05-18T05:15:44.319Z,18.43
2019-05-18T05:16:44.223Z,18.49
2019-05-18T05:17:44.127Z,18.73
2019-05-18T05:18:44.032Z,19.02
2019-05-18T05:19:43.933Z,19.36
2019-05-18T05:20:43.856Z,19.33
2019-05-18T05:21:43.744Z,19.34
2019-05-18T05:22:43.647Z,18.99
2019-05-18T05:23:43.550Z,19.04
2019-05-18T05:24:43.455Z,19.15
2019-05-18T05:25:43.361Z,19.19
2019-05-18T05:26:43.267Z,19.04
2019-05-18T05:27:43.169Z,18.89
2019-05-18T05:28:43.076Z,19.08
2019-05-18T05:29:42.980Z,19.34
2019-05-18T05:30:42.882Z,19.36
2019-05-18T05:31:42.788Z,19.47
2019-05-18T05:32:42.701Z,19.16
2019-05-18T05:33:42.648Z,19.16
2019-05-18T05:34:42.578Z,19.15
2019-05-18T05:35:42.413Z,19.31
2019-05-18T05:36:42.312Z,19.31
2019-05-18T05:37:42.219Z,19.34
2019-05-18T05:38:42.125Z,19.33
2019-05-18T05:39:42.029Z,19.52
2019-05-18T05:40:41.945Z,19.39
2019-05-18T05:41:41.841Z,19.26
2019-05-18T05:42:41.746Z,19.24
2019-05-18T05:43:41.651Z,19.55
2019-05-18T05:44:41.562Z,19.11
2019-05-18T05:45:41.464Z,19.44
2019-05-18T05:46:41.371Z,19.56
2019-05-18T05:47:41.278Z,19.24
2019-05-18T05:48:41.181Z,19.52
2019-05-18T05:49:41.091Z,19.59
2019-05-18T05:50:40.992Z,19.64
2019-05-18T05:51:40.897Z,19.86
2019-05-18T05:52:40.812Z,19.55
2019-05-18T05:53:40.709Z,19.79
2019-05-18T05:54:40.621Z,19.74
2019-05-18T05:55:40.553Z,19.96
2019-05-18T05:56:40.428Z,20.16
2019-05-18T05:57:40.338Z,20.04
2019-05-18T05:58:40.241Z,20.16
2019-05-18T05:59:40.146Z,20.26
2019-05-18T06:00:40.056Z,20.63
2019-05-18T06:01:39.959Z,20.85
2019-05-18T06:02:39.867Z,21.03
2019-05-18T06:03:39.773Z,21.29
2019-05-18T06:04:39.676Z,21.18
2019-05-18T06:05:39.583Z,21.45
2019-05-18T06:06:39.491Z,21.46
2019-05-18T06:07:39.397Z,21.22
2019-05-18T06:08:39.303Z,21.11
2019-05-18T06:09:39.211Z,21.42
2019-05-18T06:10:39.119Z,21.45
2019-05-18T06:11:39.021Z,21.52
2019-05-18T06:12:38.932Z,21.27
2019-05-18T06:13:38.838Z,21.50
2019-05-18T06:14:38.751Z,21.25
2019-05-18T06:15:38.673Z,21.37
2019-05-18T06:16:38.603Z,21.55
2019-05-18T06:17:38.542Z,21.75
2019-05-18T06:18:38.435Z,21.35
2019-05-18T06:19:38.283Z,20.93
2019-05-18T06:20:50.537Z,20.97
2019-05-18T06:21:38.098Z,21.42
2019-05-18T06:22:38.008Z,21.61
2019-05-18T06:23:37.913Z,21.69
2019-05-18T06:24:37.822Z,21.45
2019-05-18T06:25:37.732Z,21.36
2019-05-18T06:26:37.639Z,21.42
2019-05-18T06:27:37.543Z,21.67
2019-05-18T06:28:37.537Z,21.58
2019-05-18T06:29:37.446Z,21.61
2019-05-18T06:30:37.362Z,21.45
2019-05-18T06:31:37.259Z,21.82
2019-05-18T06:32:37.180Z,21.62
2019-05-18T06:33:37.077Z,21.39
2019-05-18T06:34:36.984Z,21.52
2019-05-18T06:35:36.892Z,21.67
2019-05-18T06:36:36.803Z,21.60
2019-05-18T06:37:36.713Z,21.91
2019-05-18T06:38:36.635Z,21.70
2019-05-18T06:39:36.547Z,22.10
2019-05-18T06:40:36.431Z,21.85
2019-05-18T06:41:36.343Z,22.13
2019-05-18T06:42:36.253Z,22.20
2019-05-18T06:43:36.156Z,22.32
2019-05-18T06:44:36.066Z,22.11
2019-05-18T06:45:35.985Z,22.23
2019-05-18T06:46:35.881Z,22.22
2019-05-18T06:47:35.788Z,22.65
2019-05-18T06:48:35.699Z,22.68
2019-05-18T06:49:35.606Z,22.65
2019-05-18T06:50:35.513Z,22.73
2019-05-18T06:51:35.423Z,22.93
2019-05-18T06:52:35.332Z,23.39
2019-05-18T06:53:35.243Z,23.23
2019-05-18T06:54:35.150Z,22.81
2019-05-18T06:55:35.058Z,22.66
2019-05-18T06:56:34.969Z,23.02
2019-05-18T06:57:34.875Z,23.13
2019-05-18T06:58:34.786Z,23.41
2019-05-18T06:59:34.696Z,23.68
2019-05-18T07:00:34.603Z,23.46
2019-05-18T07:01:34.582Z,23.71
2019-05-18T07:02:34.433Z,24.36
2019-05-18T07:03:34.348Z,23.96
2019-05-18T07:04:34.242Z,23.44
2019-05-18T07:05:34.152Z,23.24
2019-05-18T07:06:34.061Z,22.96
2019-05-18T07:07:33.970Z,22.76
2019-05-18T07:08:33.879Z,22.68
2019-05-18T07:09:33.797Z,22.93
2019-05-18T07:10:33.700Z,22.98
2019-05-18T07:11:33.608Z,22.90
2019-05-18T07:12:33.520Z,22.80
2019-05-18T07:13:33.450Z,22.81
2019-05-18T07:14:33.338Z,23.08
2019-05-18T07:15:33.245Z,23.10
2019-05-18T07:16:33.158Z,23.23
2019-05-18T07:17:34.650Z,23.23
2019-05-18T07:18:32.984Z,23.15
2019-05-18T07:19:32.888Z,22.96
2019-05-18T07:20:32.799Z,22.69
2019-05-18T07:21:32.708Z,22.88
2019-05-18T07:22:32.621Z,22.99
2019-05-18T07:23:32.559Z,23.55
2019-05-18T07:24:32.483Z,23.48
2019-05-18T07:25:32.345Z,23.03
2019-05-18T07:26:32.256Z,23.02
2019-05-18T07:27:32.168Z,23.13
2019-05-18T07:28:32.075Z,23.47
2019-05-18T07:29:31.984Z,23.43
2019-05-18T07:30:31.892Z,23.09
2019-05-18T07:31:31.811Z,22.99
2019-05-18T07:32:31.712Z,23.27
2019-05-18T07:33:31.633Z,23.62
2019-05-18T07:34:31.534Z,23.80
2019-05-18T07:35:31.443Z,24.24
2019-05-18T07:36:31.356Z,24.35
2019-05-18T07:37:31.274Z,24.39
2019-05-18T07:38:31.173Z,23.77
2019-05-18T07:39:31.084Z,23.50
2019-05-18T07:40:30.997Z,23.68
2019-05-18T07:41:44.520Z,23.61
2019-05-18T07:42:30.815Z,23.44
2019-05-18T07:43:30.725Z,23.55
2019-05-18T07:44:30.635Z,23.71
2019-05-18T07:45:30.543Z,23.87
2019-05-18T07:46:30.531Z,24.29
2019-05-18T07:47:30.360Z,24.77
2019-05-18T07:48:30.274Z,24.73
2019-05-18T07:49:30.184Z,24.95
2019-05-18T07:50:30.097Z,24.96
2019-05-18T07:51:37.165Z,25.48
2019-05-18T07:52:29.915Z,25.31
2019-05-18T07:53:29.828Z,25.04
2019-05-18T07:54:29.740Z,24.53
2019-05-18T07:55:29.646Z,24.24
2019-05-18T07:56:29.567Z,24.30
2019-05-18T07:57:29.465Z,24.23
2019-05-18T07:58:29.376Z,24.63
2019-05-18T07:59:29.202Z,24.54
2019-05-18T08:00:29.112Z,24.18
2019-05-18T08:01:29.015Z,24.03
2019-05-18T08:02:28.927Z,23.65
2019-05-18T08:03:28.832Z,23.21
2019-05-18T08:04:28.742Z,23.50
2019-05-18T08:05:28.651Z,22.63
2019-05-18T08:06:28.559Z,22.41
2019-05-18T08:07:28.481Z,22.30
2019-05-18T08:08:28.408Z,22.07
2019-05-18T08:09:28.282Z,22.13
2019-05-18T08:10:28.191Z,21.99
2019-05-18T08:11:28.094Z,21.79
2019-05-18T08:12:28.014Z,21.51
2019-05-18T08:13:27.909Z,21.42
2019-05-18T08:14:27.815Z,20.93
2019-05-18T08:15:27.722Z,20.77
2019-05-18T08:16:27.626Z,20.63
2019-05-18T08:17:27.534Z,20.41
2019-05-18T08:18:27.442Z,20.13
2019-05-18T08:19:27.346Z,20.07
2019-05-18T08:20:27.250Z,20.26
2019-05-18T08:21:27.164Z,20.18
2019-05-18T08:22:27.064Z,20.25
2019-05-18T08:23:26.967Z,20.50
2019-05-18T08:24:26.872Z,20.52
2019-05-18T08:25:26.779Z,20.63
2019-05-18T08:26:26.682Z,20.65
2019-05-18T08:27:26.592Z,20.63
2019-05-18T08:28:26.492Z,20.72
2019-05-18T08:29:26.427Z,21.32
2019-05-18T08:30:26.368Z,21.72
2019-05-18T08:31:26.206Z,21.50
2019-05-18T08:32:26.114Z,21.62
2019-05-18T08:33:26.013Z,21.99
2019-05-18T08:34:25.921Z,22.53
2019-05-18T08:35:27.276Z,23.05
2019-05-18T08:36:25.728Z,23.37
2019-05-18T08:37:25.627Z,23.47
2019-05-18T08:38:25.537Z,23.59
2019-05-18T08:39:25.442Z,23.63
2019-05-18T08:40:25.342Z,23.59
2019-05-18T08:41:25.244Z,23.41
2019-05-18T08:42:25.146Z,23.86
2019-05-18T08:43:25.053Z,23.47
2019-05-18T08:44:24.956Z,23.56
2019-05-18T08:45:24.862Z,23.65
2019-05-18T08:46:24.762Z,24.02
2019-05-18T08:47:24.667Z,24.16
2019-05-18T08:48:24.572Z,24.23
2019-05-18T08:49:24.476Z,23.78
2019-05-18T08:50:24.411Z,23.68
2019-05-18T08:51:24.338Z,23.96
2019-05-18T08:52:24.192Z,23.48
2019-05-18T08:53:24.098Z,23.73
2019-05-18T08:54:24.006Z,23.77
2019-05-18T08:55:23.912Z,23.88
2019-05-18T08:56:23.820Z,24.51
2019-05-18T08:57:23.730Z,24.51
2019-05-18T08:58:23.633Z,24.14
2019-05-18T08:59:23.542Z,24.39
2019-05-18T09:00:23.448Z,24.36
2019-05-18T09:01:23.356Z,24.32
2019-05-18T09:02:23.268Z,24.47
2019-05-18T09:03:23.178Z,24.54
2019-05-18T09:04:23.086Z,25.08
2019-05-18T09:05:22.997Z,24.96
2019-05-18T09:06:22.903Z,24.85
2019-05-18T09:07:22.814Z,24.69
2019-05-18T09:08:22.772Z,24.70
2019-05-18T09:09:22.632Z,24.77
2019-05-18T09:10:22.544Z,24.16
2019-05-18T09:11:22.452Z,24.51
2019-05-18T09:12:22.389Z,24.73
2019-05-18T09:13:22.319Z,24.53
2019-05-18T09:14:22.187Z,24.68
2019-05-18T09:15:22.098Z,25.06
2019-05-18T09:16:22.007Z,25.54
2019-05-18T09:17:21.918Z,25.55
2019-05-18T09:18:21.915Z,25.83
2019-05-18T09:19:21.825Z,25.63
2019-05-18T09:20:21.735Z,25.28
2019-05-18T09:21:21.646Z,24.96
2019-05-18T09:22:23.392Z,24.74
2019-05-18T09:23:21.470Z,24.63
2019-05-18T09:24:21.380Z,24.69
2019-05-18T09:25:21.296Z,24.81
2019-05-18T09:26:21.208Z,24.74
2019-05-18T09:27:21.116Z,24.99
2019-05-18T09:28:21.027Z,25.01
2019-05-18T09:29:20.953Z,24.86
2019-05-18T09:30:20.854Z,24.88
2019-05-18T09:31:20.767Z,25.32
2019-05-18T09:32:20.677Z,25.10
2019-05-18T09:33:20.588Z,24.98
2019-05-18T09:34:20.499Z,25.16
2019-05-18T09:35:20.413Z,24.86
2019-05-18T09:36:20.393Z,25.68
2019-05-18T09:37:20.252Z,25.10
2019-05-18T09:38:20.150Z,25.11
2019-05-18T09:39:20.060Z,25.04
2019-05-18T09:40:19.975Z,25.10
2019-05-18T09:41:19.889Z,25.41
2019-05-18T09:42:19.798Z,25.84
2019-05-18T09:43:19.712Z,26.06
2019-05-18T09:44:19.630Z,26.18
2019-05-18T09:45:19.577Z,26.81
2019-05-18T09:46:19.451Z,26.71
2019-05-18T09:47:19.363Z,26.70
2019-05-18T09:48:19.274Z,26.68
2019-05-18T09:49:19.193Z,26.25
2019-05-18T09:50:19.104Z,26.38
2019-05-18T09:51:19.022Z,26.51
2019-05-18T09:52:18.929Z,26.58
2019-05-18T09:53:18.846Z,26.09
2019-05-18T09:54:18.757Z,25.87
2019-05-18T09:55:18.671Z,25.44
2019-05-18T09:56:18.583Z,25.40
2019-05-18T09:57:18.499Z,25.47
2019-05-18T09:58:18.411Z,25.80
2019-05-18T09:59:18.358Z,26.22
2019-05-18T10:00:18.292Z,26.05
2019-05-18T10:01:18.151Z,26.06
2019-05-18T10:02:18.125Z,26.51
2019-05-18T10:03:17.982Z,26.97
2019-05-18T10:04:17.934Z,27.70
2019-05-18T10:05:17.821Z,27.68
2019-05-18T10:06:17.719Z,26.96
2019-05-18T10:07:17.639Z,26.58
2019-05-18T10:08:17.550Z,26.70
2019-05-18T10:09:17.514Z,27.00
2019-05-18T10:10:17.381Z,27.45
2019-05-18T10:11:17.294Z,27.25
2019-05-18T10:12:17.209Z,27.52
2019-05-18T10:13:17.124Z,27.11
2019-05-18T10:14:17.040Z,26.58
2019-05-18T10:15:16.956Z,26.28
2019-05-18T10:16:16.866Z,26.65
2019-05-18T10:17:16.787Z,26.36
2019-05-18T10:18:16.698Z,26.41
2019-05-18T10:19:16.645Z,26.70
2019-05-18T10:20:16.531Z,26.59
2019-05-18T10:21:16.454Z,26.89
2019-05-18T10:22:16.361Z,27.17
2019-05-18T10:23:16.336Z,26.93
2019-05-18T10:24:16.270Z,27.11
2019-05-18T10:25:16.109Z,26.88
2019-05-18T10:26:16.030Z,27.18
2019-05-18T10:27:15.942Z,27.11
2019-05-18T10:28:15.858Z,26.63
2019-05-18T10:29:15.772Z,26.47
2019-05-18T10:30:15.693Z,26.36
2019-05-18T10:31:15.609Z,26.81
2019-05-18T10:32:15.526Z,27.40
2019-05-18T10:33:15.444Z,27.82
2019-05-18T10:34:15.358Z,27.44
2019-05-18T10:35:15.275Z,27.29
2019-05-18T10:36:15.194Z,27.29
2019-05-18T10:37:15.110Z,27.12
2019-05-18T10:38:15.026Z,27.49
2019-05-18T10:39:14.942Z,27.86
2019-05-18T10:40:14.860Z,28.39
2019-05-18T10:41:14.776Z,28.86
2019-05-18T10:42:14.694Z,29.23
2019-05-18T10:43:14.613Z,28.96
2019-05-18T10:44:14.532Z,28.66
2019-05-18T10:45:14.447Z,28.10
2019-05-18T10:46:14.363Z,28.60
2019-05-18T10:47:14.304Z,28.96
2019-05-18T10:48:14.323Z,29.26
2019-05-18T10:49:14.117Z,29.26
2019-05-18T10:50:14.036Z,28.96
2019-05-18T10:51:13.959Z,28.72
2019-05-18T10:52:13.869Z,28.67
2019-05-18T10:53:27.756Z,28.64
2019-05-18T10:54:13.705Z,28.56
2019-05-18T10:55:13.623Z,27.87
2019-05-18T10:56:13.540Z,27.93
2019-05-18T10:57:13.461Z,28.37
2019-05-18T10:58:13.376Z,28.19
2019-05-18T10:59:13.293Z,28.22
2019-05-18T11:00:13.213Z,28.62
2019-05-18T11:01:13.125Z,29.01
2019-05-18T11:02:13.043Z,28.79
2019-05-18T11:03:12.962Z,29.08
2019-05-18T11:04:12.881Z,29.41
2019-05-18T11:05:12.808Z,29.38
2019-05-18T11:06:12.712Z,29.54
2019-05-18T11:07:12.630Z,29.44
2019-05-18T11:08:12.546Z,28.82
2019-05-18T11:09:12.461Z,28.45
2019-05-18T11:10:12.381Z,27.68
2019-05-18T11:11:12.295Z,27.71
2019-05-18T11:12:12.267Z,28.01
2019-05-18T11:13:12.208Z,28.48
2019-05-18T11:14:12.046Z,28.70
2019-05-18T11:15:11.963Z,29.17
2019-05-18T11:16:11.893Z,29.23
2019-05-18T11:17:11.796Z,29.47
2019-05-18T11:18:11.714Z,30.00
2019-05-18T11:19:11.630Z,30.32
2019-05-18T11:20:11.572Z,30.63
2019-05-18T11:21:11.471Z,30.65
2019-05-18T11:22:11.383Z,30.28
2019-05-18T11:23:11.297Z,28.39
2019-05-18T11:24:11.216Z,27.15
2019-05-18T11:25:11.136Z,26.36
2019-05-18T11:26:11.050Z,26.16
2019-05-18T11:27:10.970Z,25.85
2019-05-18T11:28:10.801Z,25.62
2019-05-18T11:29:10.801Z,25.13
2019-05-18T11:30:10.757Z,24.86
2019-05-18T11:31:10.550Z,24.88
2019-05-18T11:32:10.466Z,25.08
2019-05-18T11:33:10.380Z,25.22
2019-05-18T11:34:10.296Z,25.23
2019-05-18T11:35:10.219Z,24.86
2019-05-18T11:36:10.196Z,24.81
2019-05-18T11:37:10.037Z,24.92
2019-05-18T11:38:09.947Z,24.73
2019-05-18T11:39:09.860Z,24.51
2019-05-18T11:40:09.807Z,24.48
2019-05-18T11:41:09.684Z,24.61
2019-05-18T11:42:09.594Z,24.68
2019-05-18T11:43:09.505Z,24.73
2019-05-18T11:44:10.933Z,24.80
2019-05-18T11:45:09.329Z,24.80
2019-05-18T11:46:09.240Z,24.85
2019-05-18T11:47:09.147Z,24.86
2019-05-18T11:48:09.061Z,24.85
2019-05-18T11:49:08.966Z,24.81
2019-05-18T11:50:08.879Z,24.84
2019-05-18T11:51:08.785Z,25.07
2019-05-18T11:52:08.696Z,25.01
2019-05-18T11:53:08.603Z,25.16
2019-05-18T11:54:08.518Z,25.29
2019-05-18T11:55:08.422Z,25.78
2019-05-18T11:56:08.334Z,25.99
2019-05-18T11:57:08.275Z,25.95
2019-05-18T11:58:08.182Z,26.09
2019-05-18T11:59:08.110Z,26.21
2019-05-18T12:00:07.964Z,26.51
2019-05-18T12:01:07.874Z,26.66
2019-05-18T12:02:07.786Z,26.80
2019-05-18T12:03:07.694Z,26.73
2019-05-18T12:04:07.599Z,26.25
2019-05-18T12:05:07.513Z,25.90
2019-05-18T12:06:07.422Z,25.78
2019-05-18T12:07:07.421Z,25.62
2019-05-18T12:08:07.327Z,25.60
2019-05-18T12:09:07.238Z,25.46
2019-05-18T12:10:07.148Z,25.29
2019-05-18T12:11:07.059Z,25.21
2019-05-18T12:12:06.971Z,25.03
2019-05-18T12:13:07.688Z,25.07
2019-05-18T12:14:06.800Z,25.04
2019-05-18T12:15:06.625Z,24.98
2019-05-18T12:16:06.538Z,25.06
2019-05-18T12:17:06.449Z,24.89
2019-05-18T12:18:06.362Z,24.89
2019-05-18T12:19:06.274Z,24.99
2019-05-18T12:20:06.185Z,25.06
2019-05-18T12:21:06.160Z,25.13
2019-05-18T12:22:06.097Z,24.81
2019-05-18T12:23:08.161Z,24.63
2019-05-18T12:24:14.651Z,24.42
2019-05-18T12:25:05.738Z,24.32
2019-05-18T12:26:05.648Z,24.36
2019-05-18T12:27:05.557Z,24.42
2019-05-18T12:28:05.485Z,24.53
2019-05-18T12:29:05.380Z,24.42
2019-05-18T12:30:05.288Z,24.47
2019-05-18T12:31:05.199Z,24.40
2019-05-18T12:32:05.107Z,24.28
2019-05-18T12:33:05.021Z,24.16
2019-05-18T12:34:04.927Z,24.18
2019-05-18T12:35:04.832Z,24.01
2019-05-18T12:36:04.740Z,24.03
2019-05-18T12:37:04.649Z,24.01
2019-05-18T12:38:04.560Z,24.02
2019-05-18T12:39:04.518Z,23.95
2019-05-18T12:40:04.376Z,23.99
2019-05-18T12:41:04.286Z,24.02
2019-05-18T12:42:07.127Z,23.99
2019-05-18T12:43:04.145Z,23.99
2019-05-18T12:44:04.048Z,24.11
2019-05-18T12:45:03.913Z,24.35
2019-05-18T12:46:03.821Z,24.43
2019-05-18T12:47:03.743Z,24.73
2019-05-18T12:48:03.635Z,24.65
2019-05-18T12:49:03.545Z,24.66
2019-05-18T12:50:03.451Z,24.68
2019-05-18T12:51:03.369Z,24.80